createdAt,value
2023-01-05T00:02:24.148Z,50.91
2023-01-05T00:04:52.378Z,51.11
2023-01-05T00:07:20.626Z,49.96
2023-01-05T00:09:47.779Z,50.03
2023-01-05T00:12:33.854Z,50.40
2023-01-05T00:15:19.557Z,51.10
2023-01-05T00:18:05.781Z,50.36
2023-01-05T00:20:51.384Z,51.39
2023-01-05T00:23:18.877Z,51.66
2023-01-05T00:25:46.025Z,52.12
2023-01-05T00:28:13.165Z,52.16
2023-01-05T00:30:41.751Z,50.80
2023-01-05T00:33:09.667Z,50.59
2023-01-05T00:35:36.913Z,51.54
2023-01-05T00:38:04.576Z,51.13
2023-01-05T00:40:31.759Z,51.41
2023-01-05T00:42:58.983Z,53.59
2023-01-05T00:45:27.225Z,51.34
2023-01-05T00:47:55.166Z,51.72
2023-01-05T00:50:22.632Z,52.42
2023-01-05T00:52:50.338Z,51.00
2023-01-05T00:55:17.589Z,51.20
2023-01-05T00:57:45.414Z,51.59
2023-01-05T01:00:14.663Z,52.38
2023-01-05T01:02:41.826Z,51.82
2023-01-05T01:05:09.105Z,52.11
2023-01-05T01:07:36.896Z,53.49
2023-01-05T01:10:05.401Z,53.23
2023-01-05T01:12:32.536Z,55.09
2023-01-05T01:15:00.135Z,56.07
2023-01-05T01:17:27.278Z,54.76
2023-01-05T01:19:54.518Z,55.09
2023-01-05T01:22:21.934Z,54.22
2023-01-05T01:24:49.077Z,52.66
2023-01-05T01:27:16.269Z,51.90
2023-01-05T01:29:43.800Z,52.72
2023-01-05T01:32:11.003Z,53.45
2023-01-05T01:34:39.470Z,52.81
2023-01-05T01:37:06.950Z,51.78
2023-01-05T01:39:34.563Z,52.95
2023-01-05T01:42:02.036Z,52.17
2023-01-05T01:44:48.209Z,50.99
2023-01-05T01:47:19.431Z,52.00
2023-01-05T01:49:46.871Z,52.48
2023-01-05T01:52:14.212Z,50.54
2023-01-05T01:54:41.361Z,52.39
2023-01-05T01:57:09.911Z,52.07
2023-01-05T01:59:37.099Z,50.46
2023-01-05T02:02:04.745Z,50.42
2023-01-05T02:04:32.368Z,51.09
2023-01-05T02:06:59.665Z,51.68
2023-01-05T02:09:26.837Z,52.06
2023-01-05T02:12:09.244Z,51.06
2023-01-05T02:14:58.768Z,50.57
2023-01-05T02:17:45.444Z,50.22
2023-01-05T02:20:31.212Z,49.27
2023-01-05T02:23:06.170Z,50.82
2023-01-05T02:25:37.039Z,50.52
2023-01-05T02:28:07.321Z,49.38
2023-01-05T02:30:40.680Z,50.50
2023-01-05T02:33:20.029Z,48.54
2023-01-05T02:35:52.940Z,48.05
2023-01-05T02:38:26.287Z,47.52
2023-01-05T02:40:55.491Z,47.56
2023-01-05T02:43:23.185Z,47.71
2023-01-05T02:45:50.457Z,47.10
2023-01-05T02:48:18.075Z,47.29
2023-01-05T02:51:00.971Z,46.85
2023-01-05T02:53:30.796Z,48.27
2023-01-05T02:56:01.068Z,47.55
2023-01-05T02:58:34.261Z,47.19
2023-01-05T03:01:06.519Z,47.21
2023-01-05T03:03:35.674Z,48.68
2023-01-05T03:06:13.647Z,48.93
2023-01-05T03:08:44.762Z,48.04
2023-01-05T03:11:32.246Z,47.45
2023-01-05T03:14:01.602Z,47.45
2023-01-05T03:16:29.867Z,47.46
2023-01-05T03:19:16.529Z,47.48
2023-01-05T03:22:02.818Z,47.23
2023-01-05T03:24:49.933Z,47.97
2023-01-05T03:27:36.655Z,50.67
2023-01-05T03:30:22.994Z,49.91
2023-01-05T03:33:10.289Z,49.07
2023-01-05T03:35:41.807Z,49.90
2023-01-05T03:38:18.286Z,49.98
2023-01-05T03:40:46.155Z,48.45
2023-01-05T03:43:13.831Z,49.34
2023-01-05T03:46:01.374Z,50.54
2023-01-05T03:48:30.078Z,50.85
2023-01-05T03:50:57.313Z,51.49
2023-01-05T03:53:24.649Z,50.40
2023-01-05T03:55:52.106Z,51.64
2023-01-05T03:58:20.778Z,51.56
2023-01-05T04:00:48.261Z,50.59
2023-01-05T04:03:17.058Z,51.14
2023-01-05T04:05:44.355Z,50.22
2023-01-05T04:08:11.615Z,50.36
2023-01-05T04:10:39.067Z,50.62
2023-01-05T04:13:07.683Z,50.60
2023-01-05T04:15:34.999Z,50.75
2023-01-05T04:18:03.109Z,51.46
2023-01-05T04:20:30.271Z,52.64
2023-01-05T04:22:58.048Z,50.27
2023-01-05T04:25:25.827Z,50.63
2023-01-05T04:27:53.159Z,55.52
2023-01-05T04:30:21.615Z,52.92
2023-01-05T04:32:49.539Z,52.77
2023-01-05T04:35:16.758Z,50.32
2023-01-05T04:37:44.696Z,49.32
2023-01-05T04:40:13.288Z,48.87
2023-01-05T04:42:41.597Z,48.93
2023-01-05T04:45:09.020Z,48.78
2023-01-05T04:47:36.717Z,49.21
2023-01-05T04:50:04.784Z,51.20
2023-01-05T04:52:32.251Z,50.21
2023-01-05T04:54:59.743Z,51.24
2023-01-05T04:57:28.466Z,52.39
2023-01-05T04:59:55.683Z,51.52
2023-01-05T05:02:24.864Z,52.12
2023-01-05T05:04:52.537Z,53.28
2023-01-05T05:07:21.458Z,53.67
2023-01-05T05:09:48.963Z,52.83
2023-01-05T05:12:20.373Z,53.35
2023-01-05T05:14:49.952Z,53.86
2023-01-05T05:17:17.340Z,55.12
2023-01-05T05:19:44.848Z,54.68
2023-01-05T05:22:12.863Z,54.42
2023-01-05T05:24:40.085Z,55.39
2023-01-05T05:27:08.022Z,58.06
2023-01-05T05:29:35.510Z,58.86
2023-01-05T05:32:02.710Z,58.03
2023-01-05T05:34:29.961Z,59.46
2023-01-05T05:36:57.405Z,58.96
2023-01-05T05:39:24.552Z,57.97
2023-01-05T05:41:51.717Z,57.08
2023-01-05T05:44:19.179Z,59.82
2023-01-05T05:46:46.465Z,59.28
2023-01-05T05:49:13.705Z,58.50
2023-01-05T05:51:41.214Z,59.25
2023-01-05T05:54:08.723Z,58.28
2023-01-05T05:56:35.920Z,58.14
2023-01-05T05:59:03.357Z,57.45
2023-01-05T06:01:30.668Z,55.71
2023-01-05T06:03:58.202Z,53.00
2023-01-05T06:06:25.407Z,53.93
2023-01-05T06:08:52.564Z,51.52
2023-01-05T06:11:19.996Z,53.34
2023-01-05T06:13:48.852Z,52.06
2023-01-05T06:16:16.149Z,52.38
2023-01-05T06:18:43.603Z,53.09
2023-01-05T06:21:10.770Z,50.91
2023-01-05T06:23:37.917Z,49.69
2023-01-05T06:26:05.498Z,50.50
2023-01-05T06:28:32.719Z,51.24
2023-01-05T06:30:59.857Z,50.33
2023-01-05T06:33:27.326Z,49.25
2023-01-05T06:35:54.576Z,49.27
2023-01-05T06:38:21.737Z,49.27
2023-01-05T06:40:49.656Z,48.51
2023-01-05T06:43:16.914Z,47.52
2023-01-05T06:45:44.254Z,47.24
2023-01-05T06:48:11.710Z,46.41
2023-01-05T06:50:38.904Z,46.28
2023-01-05T06:53:06.101Z,45.90
2023-01-05T06:55:33.546Z,45.98
2023-01-05T06:58:01.382Z,47.18
2023-01-05T07:00:29.014Z,47.00
2023-01-05T07:02:56.516Z,46.91
2023-01-05T07:05:24.675Z,47.01
2023-01-05T07:07:52.013Z,46.81
2023-01-05T07:10:19.501Z,46.88
2023-01-05T07:12:46.691Z,47.30
2023-01-05T07:15:13.833Z,47.05
2023-01-05T07:17:41.257Z,46.78
2023-01-05T07:20:08.678Z,46.72
2023-01-05T07:22:35.861Z,46.96
2023-01-05T07:25:03.375Z,47.53
2023-01-05T07:27:30.609Z,46.94
2023-01-05T07:29:57.765Z,46.94
2023-01-05T07:32:25.212Z,48.60
2023-01-05T07:34:55.737Z,48.28
2023-01-05T07:37:24.884Z,48.93
2023-01-05T07:39:54.075Z,49.42
2023-01-05T07:42:21.291Z,48.91
2023-01-05T07:44:48.621Z,48.33
2023-01-05T07:47:16.070Z,50.75
2023-01-05T07:49:43.240Z,50.77
2023-01-05T07:52:10.389Z,49.90
2023-01-05T07:54:37.798Z,50.18
2023-01-05T07:57:04.953Z,51.92
2023-01-05T07:59:32.130Z,52.75
2023-01-05T08:01:59.717Z,51.40
2023-01-05T08:04:27.897Z,52.32
2023-01-05T08:06:56.345Z,55.86
2023-01-05T08:09:42.003Z,52.23
2023-01-05T08:12:10.815Z,51.85
2023-01-05T08:14:38.702Z,53.52
2023-01-05T08:17:05.847Z,52.26
2023-01-05T08:19:33.262Z,51.30
2023-01-05T08:22:00.704Z,51.22
2023-01-05T08:24:27.839Z,51.14
2023-01-05T08:26:55.297Z,51.48
2023-01-05T08:29:22.490Z,51.40
2023-01-05T08:31:49.744Z,52.16
2023-01-05T08:34:17.238Z,54.09
2023-01-05T08:36:44.635Z,55.01
2023-01-05T08:39:11.906Z,55.48
2023-01-05T08:41:40.047Z,53.48
2023-01-05T08:44:08.516Z,53.62
2023-01-05T08:46:35.884Z,55.50
2023-01-05T08:49:04.502Z,55.78
2023-01-05T08:51:31.943Z,54.82
2023-01-05T08:53:59.096Z,55.65
2023-01-05T08:56:27.601Z,56.04
2023-01-05T08:58:59.036Z,57.40
2023-01-05T09:01:26.646Z,55.83
2023-01-05T09:03:53.917Z,54.47
2023-01-05T09:06:21.063Z,54.35
2023-01-05T09:08:48.743Z,54.38
2023-01-05T09:11:17.885Z,55.71
2023-01-05T09:13:45.888Z,54.51
2023-01-05T09:16:14.029Z,58.47
2023-01-05T09:18:41.567Z,57.85
2023-01-05T09:21:09.487Z,59.01
2023-01-05T09:23:37.173Z,58.46
2023-01-05T09:26:05.129Z,58.74
2023-01-05T09:28:32.342Z,58.60
2023-01-05T09:30:59.787Z,57.23
2023-01-05T09:33:26.962Z,57.68
2023-01-05T09:35:57.368Z,60.67
2023-01-05T09:38:24.972Z,60.24
2023-01-05T09:40:53.201Z,58.92
2023-01-05T09:43:33.456Z,57.16
2023-01-05T09:46:01.138Z,61.67
2023-01-05T09:48:29.838Z,62.57
2023-01-05T09:50:57.217Z,62.62
2023-01-05T09:53:27.800Z,61.15
2023-01-05T09:55:55.082Z,58.45
2023-01-05T09:58:29.675Z,58.84
2023-01-05T10:01:02.806Z,60.19
2023-01-05T10:04:02.405Z,59.66
2023-01-05T10:06:18.767Z,59.16
2023-01-05T10:08:47.217Z,58.78
2023-01-05T10:11:34.022Z,58.02
2023-01-05T10:14:09.651Z,56.22
2023-01-05T10:16:36.873Z,56.01
2023-01-05T10:19:04.345Z,56.09
2023-01-05T10:21:46.709Z,57.49
2023-01-05T10:24:22.468Z,57.63
2023-01-05T10:29:50.038Z,58.42
2023-01-05T10:32:22.937Z,54.99
2023-01-05T10:34:57.678Z,58.11
2023-01-05T10:37:31.310Z,58.42
2023-01-05T10:39:58.686Z,55.62
2023-01-05T10:42:45.604Z,58.75
2023-01-05T10:45:13.528Z,58.04
2023-01-05T10:47:41.150Z,60.49
2023-01-05T10:50:25.247Z,60.24
2023-01-05T10:52:53.260Z,57.66
2023-01-05T10:55:20.463Z,58.78
2023-01-05T10:57:47.631Z,57.43
2023-01-05T11:00:18.201Z,58.44
2023-01-05T11:02:51.551Z,62.65
2023-01-05T11:05:19.117Z,61.84
2023-01-05T11:07:56.466Z,59.11
2023-01-05T11:10:37.118Z,58.93
2023-01-05T11:13:04.255Z,58.21
2023-01-05T11:15:32.660Z,60.82
2023-01-05T11:17:59.939Z,59.78
2023-01-05T11:20:27.706Z,60.18
2023-01-05T11:22:55.174Z,64.76
2023-01-05T11:25:32.235Z,63.26
2023-01-05T11:28:18.630Z,62.83
2023-01-05T11:31:02.161Z,59.82
2023-01-05T11:33:30.020Z,60.13
2023-01-05T11:35:57.313Z,62.83
2023-01-05T11:38:25.813Z,63.46
2023-01-05T11:40:56.155Z,65.23
2023-01-05T11:43:23.753Z,66.01
2023-01-05T11:45:52.231Z,62.97
2023-01-05T11:48:20.941Z,63.64
2023-01-05T11:50:50.377Z,65.17
2023-01-05T11:53:32.859Z,64.57
2023-01-05T11:56:03.348Z,63.88
2023-01-05T11:58:33.370Z,60.88
2023-01-05T12:01:20.282Z,64.71
2023-01-05T12:04:01.660Z,65.23
2023-01-05T12:06:35.118Z,65.66
2023-01-05T12:09:22.082Z,66.01
2023-01-05T12:11:52.079Z,65.15
2023-01-05T12:14:36.503Z,63.72
2023-01-05T12:17:06.222Z,63.28
2023-01-05T12:19:42.439Z,61.74
2023-01-05T12:22:18.951Z,60.11
2023-01-05T12:24:48.981Z,61.02
2023-01-05T12:27:20.134Z,62.31
2023-01-05T12:35:53.704Z,63.72
2023-01-05T12:38:31.060Z,63.12
2023-01-05T12:41:07.585Z,64.49
2023-01-05T12:43:53.312Z,64.99
2023-01-05T12:46:26.681Z,62.91
2023-01-05T12:48:55.652Z,66.13
2023-01-05T12:51:36.355Z,65.26
2023-01-05T12:54:06.543Z,66.64
2023-01-05T12:56:38.589Z,62.71
2023-01-05T12:59:14.895Z,59.95
2023-01-05T13:01:55.139Z,61.77
2023-01-05T13:04:39.130Z,62.22
2023-01-05T13:07:32.768Z,62.05
2023-01-05T13:10:03.262Z,60.51
2023-01-05T13:12:31.717Z,62.12
2023-01-05T13:15:19.091Z,60.73
2023-01-05T13:17:47.827Z,61.73
2023-01-05T13:20:22.311Z,64.72
2023-01-05T13:22:49.797Z,61.68
2023-01-05T13:25:16.912Z,62.01
2023-01-05T13:27:44.080Z,63.89
2023-01-05T13:30:24.700Z,63.10
2023-01-05T13:33:05.491Z,64.98
2023-01-05T13:35:41.305Z,61.92
2023-01-05T13:38:27.191Z,63.43
2023-01-05T13:41:16.424Z,59.43
2023-01-05T13:43:47.331Z,61.02
2023-01-05T13:46:21.509Z,64.69
2023-01-05T13:49:03.243Z,63.94
2023-01-05T13:51:49.986Z,62.36
2023-01-05T13:54:33.053Z,60.02
2023-01-05T13:57:21.395Z,64.06
2023-01-05T14:00:04.715Z,61.96
2023-01-05T14:02:42.287Z,62.78
2023-01-05T14:05:17.224Z,61.45
2023-01-05T14:07:44.364Z,60.98
2023-01-05T14:10:22.561Z,60.58
2023-01-05T14:12:50.249Z,61.09
2023-01-05T14:15:37.741Z,61.07
2023-01-05T14:18:05.782Z,59.86
2023-01-05T14:20:49.436Z,58.26
2023-01-05T14:23:23.237Z,63.36
2023-01-05T14:26:00.808Z,61.00
2023-01-05T14:28:28.001Z,57.72
2023-01-05T14:31:26.047Z,57.79
2023-01-05T14:33:59.150Z,58.53
2023-01-05T14:36:50.208Z,57.95
2023-01-05T14:39:17.876Z,59.70
2023-01-05T14:41:46.644Z,60.27
2023-01-05T14:44:24.431Z,57.48
2023-01-05T14:46:52.578Z,60.15
2023-01-05T14:49:21.266Z,57.09
2023-01-05T14:51:52.322Z,59.92
2023-01-05T14:54:34.411Z,62.59
2023-01-05T14:57:20.601Z,60.46
2023-01-05T14:59:48.440Z,60.06
2023-01-05T15:02:18.856Z,61.56
2023-01-05T15:04:45.994Z,61.35
2023-01-05T15:07:13.410Z,61.18
2023-01-05T15:10:01.354Z,58.85
2023-01-05T15:12:38.163Z,58.79
2023-01-05T15:15:24.226Z,59.02
2023-01-05T15:17:53.642Z,59.91
2023-01-05T15:20:29.758Z,59.83
2023-01-05T15:23:06.368Z,61.42
2023-01-05T15:25:53.090Z,57.82
2023-01-05T15:28:39.531Z,58.34
2023-01-05T15:31:16.293Z,58.45
2023-01-05T15:33:50.921Z,56.70
2023-01-05T15:36:29.081Z,57.58
2023-01-05T15:38:57.670Z,56.00
2023-01-05T15:41:25.449Z,55.74
2023-01-05T15:43:52.912Z,57.97
2023-01-05T15:46:21.309Z,55.11
2023-01-05T15:48:50.859Z,57.85
2023-01-05T15:51:22.375Z,56.73
2023-01-05T15:53:54.916Z,57.62
2023-01-05T15:56:25.633Z,54.67
2023-01-05T15:58:53.104Z,56.64
2023-01-05T16:01:20.998Z,57.29
2023-01-05T16:03:48.788Z,56.98
2023-01-05T16:06:20.256Z,54.30
2023-01-05T16:08:48.497Z,55.50
2023-01-05T16:11:18.052Z,59.10
2023-01-05T16:13:48.290Z,55.44
2023-01-05T16:16:55.452Z,57.31
2023-01-05T16:19:17.307Z,56.44
2023-01-05T16:21:46.153Z,57.95
2023-01-05T16:24:15.909Z,57.47
2023-01-05T16:26:43.049Z,54.80
2023-01-05T16:29:20.973Z,54.14
2023-01-05T16:31:55.457Z,54.40
2023-01-05T16:34:31.611Z,54.15
2023-01-05T16:37:08.400Z,55.04
2023-01-05T16:39:37.195Z,54.16
2023-01-05T16:42:23.775Z,52.15
2023-01-05T16:44:52.099Z,52.34
2023-01-05T16:47:26.923Z,54.01
2023-01-05T16:49:58.255Z,51.60
2023-01-05T16:52:30.951Z,53.38
2023-01-05T16:55:27.855Z,52.53
2023-01-05T16:57:55.939Z,54.63
2023-01-05T17:00:26.153Z,53.58
2023-01-05T17:02:54.537Z,52.54
2023-01-05T17:05:22.836Z,53.50
2023-01-05T17:07:58.725Z,53.77
2023-01-05T17:10:26.426Z,52.97
2023-01-05T17:13:01.207Z,53.01
2023-01-05T17:15:29.719Z,52.36
2023-01-05T17:17:57.171Z,53.25
2023-01-05T17:20:25.023Z,52.10
2023-01-05T17:22:53.400Z,54.86
2023-01-05T17:25:20.844Z,53.74
2023-01-05T17:27:49.605Z,53.38
2023-01-05T17:30:20.780Z,53.48
2023-01-05T17:32:48.211Z,51.95
2023-01-05T17:35:18.463Z,53.47
2023-01-05T17:37:47.378Z,54.33
2023-01-05T17:40:17.035Z,53.36
2023-01-05T17:42:44.489Z,52.93
2023-01-05T17:45:16.658Z,53.29
2023-01-05T17:47:44.159Z,52.66
2023-01-05T17:50:13.683Z,53.84
2023-01-05T17:52:40.905Z,54.10
2023-01-05T17:55:08.443Z,54.61
2023-01-05T17:57:35.849Z,52.53
2023-01-05T18:00:07.819Z,53.50
2023-01-05T18:02:35.825Z,55.18
2023-01-05T18:05:03.644Z,54.90
2023-01-05T18:07:31.474Z,54.80
2023-01-05T18:09:59.609Z,56.69
2023-01-05T18:12:26.832Z,55.52
2023-01-05T18:14:54.316Z,54.74
2023-01-05T18:17:21.798Z,56.40
2023-01-05T18:19:49.111Z,55.51
2023-01-05T18:22:16.437Z,53.21
2023-01-05T18:24:44.379Z,55.25
2023-01-05T18:27:12.222Z,55.11
2023-01-05T18:29:40.921Z,55.18
2023-01-05T18:32:08.945Z,55.35
2023-01-05T18:34:36.452Z,56.80
2023-01-05T18:37:10.480Z,56.37
2023-01-05T18:39:38.840Z,54.64
2023-01-05T18:42:06.325Z,55.03
2023-01-05T18:44:33.693Z,56.13
2023-01-05T18:47:01.422Z,55.28
2023-01-05T18:49:28.679Z,55.20
2023-01-05T18:51:55.815Z,53.98
2023-01-05T18:54:23.627Z,55.90
2023-01-05T18:56:51.293Z,54.44
2023-01-05T18:59:18.690Z,55.06
2023-01-05T19:01:46.238Z,54.70
2023-01-05T19:04:15.109Z,54.36
2023-01-05T19:06:42.314Z,55.65
2023-01-05T19:09:10.376Z,55.82
2023-01-05T19:11:38.312Z,56.04
2023-01-05T19:14:06.103Z,56.82
2023-01-05T19:16:34.692Z,56.86
2023-01-05T19:19:05.159Z,55.05
2023-01-05T19:21:33.455Z,54.42
2023-01-05T19:24:01.353Z,55.34
2023-01-05T19:26:30.689Z,55.15
2023-01-05T19:29:02.486Z,53.96
2023-01-05T19:31:30.754Z,55.09
2023-01-05T19:33:59.463Z,54.85
2023-01-05T19:36:32.298Z,54.22
2023-01-05T19:39:00.901Z,52.91
2023-01-05T19:41:28.434Z,53.53
2023-01-05T19:43:56.257Z,53.48
2023-01-05T19:46:25.184Z,53.84
2023-01-05T19:48:52.784Z,56.67
2023-01-05T19:51:22.403Z,56.09
2023-01-05T19:54:01.110Z,55.16
2023-01-05T19:56:33.480Z,52.45
2023-01-05T19:59:02.669Z,55.04
2023-01-05T20:01:31.263Z,54.28
2023-01-05T20:03:59.197Z,53.24
2023-01-05T20:06:27.662Z,53.02
2023-01-05T20:08:56.641Z,52.71
2023-01-05T20:11:38.111Z,51.92
2023-01-05T20:14:09.159Z,54.56
2023-01-05T20:16:38.017Z,52.85
2023-01-05T20:19:05.381Z,52.18
2023-01-05T20:21:32.836Z,52.22
2023-01-05T20:24:01.872Z,52.67
2023-01-05T20:26:31.578Z,54.76
2023-01-05T20:29:02.136Z,54.19
2023-01-05T20:31:32.989Z,51.10
2023-01-05T20:34:03.346Z,53.55
2023-01-05T20:36:32.628Z,54.01
2023-01-05T20:39:00.485Z,52.37
2023-01-05T20:41:28.685Z,52.36
2023-01-05T20:43:56.849Z,55.12
2023-01-05T20:46:34.351Z,53.81
2023-01-05T20:49:01.918Z,52.86
2023-01-05T20:51:29.042Z,52.52
2023-01-05T20:53:57.231Z,50.88
2023-01-05T20:56:26.074Z,53.74
2023-01-05T20:58:53.845Z,53.73
2023-01-05T21:01:21.471Z,51.64
2023-01-05T21:03:50.521Z,52.99
2023-01-05T21:06:18.094Z,54.94
2023-01-05T21:08:48.894Z,54.44
2023-01-05T21:11:22.877Z,53.17
2023-01-05T21:13:50.352Z,52.34
2023-01-05T21:16:21.603Z,52.11
2023-01-05T21:18:49.079Z,54.64
2023-01-05T21:21:17.729Z,53.72
2023-01-05T21:23:48.032Z,52.93
2023-01-05T21:26:16.526Z,57.45
2023-01-05T21:28:44.129Z,55.18
2023-01-05T21:31:13.463Z,56.39
2023-01-05T21:33:40.985Z,53.52
2023-01-05T21:36:09.682Z,54.70
2023-01-05T21:39:02.124Z,56.95
2023-01-05T21:41:43.110Z,55.50
2023-01-05T21:44:11.232Z,55.18
2023-01-05T21:46:39.228Z,55.02
2023-01-05T21:49:06.978Z,51.50
2023-01-05T21:51:53.120Z,54.80
2023-01-05T21:54:39.114Z,54.24
2023-01-05T21:57:06.915Z,55.32
2023-01-05T21:59:34.204Z,54.29
2023-01-05T22:02:01.317Z,53.88
2023-01-05T22:04:28.754Z,56.20
2023-01-05T22:06:55.995Z,56.12
2023-01-05T22:09:23.118Z,55.85
2023-01-05T22:11:50.561Z,55.87
2023-01-05T22:14:17.800Z,53.52
2023-01-05T22:16:44.925Z,56.40
2023-01-05T22:19:12.381Z,56.00
2023-01-05T22:21:39.502Z,53.69
2023-01-05T22:24:06.925Z,54.57
2023-01-05T22:26:34.346Z,55.08
2023-01-05T22:29:01.509Z,55.85
2023-01-05T22:31:29.614Z,56.36
2023-01-05T22:33:57.937Z,54.77
2023-01-05T22:36:25.584Z,54.38
2023-01-05T22:38:52.996Z,54.98
2023-01-05T22:41:21.486Z,52.87
2023-01-05T22:43:48.892Z,55.42
2023-01-05T22:46:20.310Z,54.25
2023-01-05T22:48:48.920Z,52.95
2023-01-05T22:51:17.049Z,52.72
2023-01-05T22:53:44.401Z,52.91
2023-01-05T22:56:12.428Z,49.67
2023-01-05T22:58:39.683Z,49.71
2023-01-05T23:01:06.895Z,50.91
2023-01-05T23:03:34.347Z,49.45
2023-01-05T23:06:01.482Z,48.21
2023-01-05T23:08:31.982Z,46.99
2023-01-05T23:11:03.675Z,46.48
2023-01-05T23:13:30.875Z,46.23
2023-01-05T23:15:58.216Z,47.97
2023-01-05T23:18:25.641Z,47.44
2023-01-05T23:20:56.718Z,47.51
2023-01-05T23:23:24.120Z,46.80
2023-01-05T23:25:51.853Z,48.59
2023-01-05T23:28:19.478Z,47.90
2023-01-05T23:30:47.128Z,47.05
2023-01-05T23:33:15.019Z,47.42
2023-01-05T23:35:45.734Z,47.70
2023-01-05T23:38:14.431Z,46.14
2023-01-05T23:40:42.581Z,46.34
2023-01-05T23:43:14.100Z,46.44
2023-01-05T23:45:43.077Z,44.50
2023-01-05T23:48:13.727Z,44.47
2023-01-05T23:50:41.380Z,47.07
2023-01-05T23:53:08.801Z,46.51
2023-01-05T23:55:36.016Z,48.25
2023-01-05T23:58:03.363Z,46.39
